Terminal Aerodrome Forecast
Issued by NWS

Home | Current Version | Previous Version | Text Only | Print | Product List | Glossary On
Versions: 1 2 3 4 5 6 7 8 9 10 11 12 13 14 15 16 17 18 19 20 21 22 23 24 25 26 27 28 29 30 31 32 33 34 35 36 37 38 39
000
FTUS45 KGGW 311900 AAA
TAFGDV
TAF AMD
KGDV 311935Z 3120/0118 06017KT 1SM -SN BLSN OVC008
     FM312100 06014KT 1/2SM -SN BLSN OVC009
     FM010600 04009KT P6SM VCSH OVC011
     FM011200 00000KT P6SM BKN013
      AMD LTD TO CLD VIS AND WIND=

USA.gov is the U.S. government's official web portal to all federal, state and local government web resources and services.